• Join FlightAware (Why Join?)
  • Login
  • US Flag 
04:13PM EDT


 

Airport Tracker/Info


-or-


 

Live Flight TrackerFlight Track Log ✈ AAL832 ✈ 14-Aug-2013 ✈ KLAX - KORD

Flight Track Log - Related Links

Times and Time Zones

All times are in EDT time to prevent confusion due to time zone crossing. See the AAL832 flight status page for this flight to view local times or setup timezone preferences in your user account.

Time Position Orientation Groundspeed Altitude Reporting Facility
EDT Latitude Longitude Course Direction KTS MPH feet Rate Location/Type
12:52PM 33.9330 -118.4470 263° West 185 213 1,500  Level FlightAware
12:52PM 33.9300 -118.4710 261° West 203 234 1,900 1,080 Climbing FlightAware
12:52PM 33.9250 -118.4890 251° West 221 254 2,200 960 Climbing FlightAware
12:53PM 33.9110 -118.5280 247° West 253 291 2,700 1,020 Climbing FlightAware
12:53PM 33.9010 -118.5550 246° West 271 312 3,100 1,500 Climbing FlightAware
12:53PM 33.8920 -118.5820 248° West 278 320 3,700 2,220 Climbing FlightAware
12:54PM 33.8770 -118.6180 243° Southwest 268 308 4,800 2,460 Climbing FlightAware
12:54PM 33.8660 -118.6270 214° Southwest 267 307 5,200 2,100 Climbing FlightAware
12:54PM 33.8620 -118.6300 212° Southwest 267 307 5,300 1,500 Climbing FlightAware
12:54PM 33.8540 -118.6320 192° South 269 310 5,500 1,260 Climbing FlightAware
12:54PM 33.8460 -118.6330 186° South 272 313 5,600 1,560 Climbing FlightAware
12:55PM 33.8220 -118.6220 159° South 276 318 6,200 1,920 Climbing FlightAware
12:55PM 33.8140 -118.6130 137° Southeast 278 320 6,500 1,980 Climbing FlightAware
12:55PM 33.8110 -118.6070 121° Southeast 279 321 6,600 1,980 Climbing FlightAware
12:55PM 33.8080 -118.5970 110° East 279 321 6,900 1,860 Climbing FlightAware
12:55PM 33.8050 -118.5840 106° East 279 321 7,100 1,860 Climbing FlightAware
12:55PM 33.8140 -118.5470 74° East 282 325 8,000 2,160 Climbing FlightAware
12:56PM 33.8340 -118.5250 42° Northeast 288 331 8,800 2,400 Climbing FlightAware
12:56PM 33.8550 -118.5050 38° Northeast 290 334 9,600 1,920 Climbing FlightAware
12:57PM 33.8940 -118.4690 37° Northeast 306 352 10,600 1,500 Climbing FlightAware
12:57PM 33.9350 -118.4250 42° Northeast 338 389 11,400 1,680 Climbing FlightAware
12:58PM 33.9690 -118.3690 54° Northeast 355 409 12,600 1,920 Climbing FlightAware
12:59PM 34.0040 -118.3060 56° Northeast 370 426 13,800 2,040 Climbing FlightAware
12:59PM 34.0390 -118.2460 55° Northeast 379 436 15,100 2,340 Climbing FlightAware
01:00PM 34.0730 -118.1850 56° Northeast 384 442 16,500 2,160 Climbing FlightAware
01:00PM 34.1070 -118.1250 56° Northeast 394 453 17,600 1,920 Climbing FlightAware
01:01PM 34.1430 -118.0620 55° Northeast 403 464 18,700 2,100 Climbing FlightAware
01:01PM 34.1760 -118.0040 55° Northeast 405 466 19,900 1,920 Climbing FlightAware
01:02PM 34.2130 -117.9370 56° Northeast 415 478 20,900 1,620 Climbing FlightAware
01:03PM 34.2570 -117.8600 55° Northeast 427 491 21,900 1,500 Climbing FlightAware
01:03PM 34.2970 -117.7880 56° Northeast 439 505 22,800 1,440 Climbing FlightAware
01:04PM 34.3360 -117.7180 56° Northeast 447 514 23,600 1,500 Climbing FlightAware
01:04PM 34.3810 -117.6380 56° Northeast 455 524 24,600 1,500 Climbing FlightAware
01:05PM 34.4190 -117.5700 56° Northeast 461 531 25,400 1,380 Climbing FlightAware
01:05PM 34.4570 -117.5010 56° Northeast 467 537 26,100 1,380 Climbing FlightAware
01:06PM 34.5050 -117.4140 56° Northeast 472 543 27,100 1,320 Climbing FlightAware
01:07PM 34.5480 -117.3440 53° Northeast 477 549 27,700 1,140 Climbing FlightAware
01:07PM 34.6000 -117.2720 49° Northeast 483 556 28,400 1,140 Climbing FlightAware
01:08PM 34.6550 -117.1970 48° Northeast 491 565 29,100 1,080 Climbing FlightAware
01:08PM 34.7050 -117.1270 49° Northeast 497 572 29,700 960 Climbing FlightAware
01:09PM 34.7530 -117.0610 48° Northeast 502 578 30,200 1,080 Climbing FlightAware
01:10PM 34.8060 -116.9860 49° Northeast 506 582 30,900 1,140 Climbing FlightAware
01:10PM 34.8580 -116.9140 49° Northeast 509 586 31,500 1,200 Climbing FlightAware
01:11PM 34.9200 -116.8270 49° Northeast 506 582 32,400 840 Climbing FlightAware
01:11PM 34.9680 -116.7600 49° Northeast 505 581 32,600 120 Climbing FlightAware
01:12PM 35.0180 -116.6890 49° Northeast 505 581 32,600 660 Level FlightAware
01:18PM 35.5570 -115.9220 49° Northeast 499 574 37,000 660 Climbing FlightAware
01:18PM 35.6050 -115.8530 49° Northeast 498 573 37,000  Level FlightAware
01:19PM 35.6590 -115.7740 50° Northeast 498 573 37,000  Level FlightAware
01:20PM 35.7140 -115.6950 49° Northeast 497 572 37,000  Level FlightAware
01:20PM 35.7570 -115.6320 50° Northeast 497 572 37,000  Level FlightAware
01:21PM 35.8150 -115.5470 50° Northeast 497 572 37,000  Level FlightAware
01:21PM 35.8680 -115.4700 50° Northeast 498 573 37,000  Level FlightAware
01:22PM 35.9220 -115.3910 50° Northeast 498 573 37,000  Level FlightAware
01:22PM 35.9680 -115.3230 50° Northeast 499 574 37,000  Level FlightAware
01:23PM 36.0210 -115.2460 50° Northeast 499 574 37,000  Level FlightAware
01:24PM 36.0750 -115.1670 50° Northeast 500 575 37,000  Level FlightAware
01:24PM 36.1260 -115.1020 46° Northeast 499 574 37,000  Level FlightAware
01:25PM 36.1810 -115.0320 46° Northeast 499 574 37,000  Level FlightAware
01:25PM 36.2400 -114.9570 46° Northeast 499 574 37,000  Level FlightAware
01:26PM 36.2980 -114.8830 46° Northeast 500 575 37,000  Level FlightAware
01:26PM 36.3480 -114.8190 46° Northeast 499 574 37,000  Level FlightAware
01:27PM 36.4130 -114.7350 46° Northeast 501 577 37,000  Level FlightAware
01:28PM 36.4670 -114.6650 46° Northeast 502 578 37,000  Level FlightAware
01:28PM 36.5230 -114.5920 46° Northeast 503 579 37,000  Level FlightAware
01:29PM 36.5820 -114.5140 47° Northeast 505 581 37,000  Level FlightAware
01:29PM 36.6340 -114.4460 46° Northeast 507 583 37,000  Level FlightAware
01:30PM 36.6890 -114.3730 47° Northeast 507 583 37,000  Level FlightAware
01:31PM 36.7470 -114.2960 47° Northeast 511 588 37,000  Level FlightAware
01:31PM 36.7930 -114.2110 56° Northeast 514 592 37,000  Level FlightAware
01:32PM 36.8380 -114.1170 59° Northeast 514 592 37,000  Level FlightAware
01:32PM 36.8810 -114.0290 59° Northeast 514 592 37,000  Level FlightAware
01:33PM 36.9270 -113.9340 59° Northeast 514 592 37,000  Level FlightAware
01:33PM 36.9650 -113.8540 59° Northeast 515 593 37,000  Level FlightAware
01:34PM 37.0120 -113.7550 59° Northeast 515 593 37,000  Level FlightAware
01:35PM 37.0510 -113.6720 59° Northeast 514 592 37,000  Level FlightAware
01:35PM 37.0950 -113.5800 59° Northeast 513 590 37,000  Level FlightAware
01:36PM 37.1350 -113.4960 59° Northeast 513 590 37,000  Level FlightAware
01:36PM 37.1710 -113.4200 59° Northeast 513 590 37,000  Level FlightAware
01:37PM 37.2220 -113.3140 59° Northeast 513 590 37,000  Level FlightAware
01:38PM 37.2590 -113.2360 59° Northeast 513 590 37,000  Level FlightAware
01:38PM 37.2990 -113.1530 59° Northeast 513 590 37,000  Level FlightAware
01:39PM 37.3610 -113.0160 60° Northeast 513 590 37,000  Level FlightAware
01:40PM 37.4020 -112.9280 60° Northeast 514 592 37,000  Level FlightAware
01:40PM 37.4410 -112.8450 59° Northeast 514 592 37,000  Level FlightAware
01:41PM 37.4790 -112.7660 59° Northeast 514 592 37,000  Level FlightAware
01:41PM 37.5160 -112.6870 59° Northeast 514 592 37,000  Level FlightAware
01:42PM 37.5530 -112.6110 58° Northeast 514 592 37,000  Level FlightAware
01:43PM 37.5910 -112.5300 59° Northeast 514 592 37,000  Level FlightAware
01:43PM 37.6300 -112.4490 59° Northeast 514 592 37,000  Level FlightAware
01:44PM 37.6670 -112.3700 59° Northeast 514 592 37,000  Level FlightAware
01:44PM 37.7050 -112.2910 59° Northeast 514 592 37,000  Level FlightAware
01:45PM 37.7550 -112.1860 59° Northeast 514 592 37,000  Level FlightAware
01:46PM 37.7920 -112.1070 59° Northeast 514 592 37,000  Level FlightAware
01:46PM 37.8300 -112.0280 59° Northeast 514 592 37,000  Level FlightAware
01:47PM 37.8670 -111.9490 59° Northeast 514 592 37,000  Level FlightAware
01:48PM 37.9070 -111.8660 59° Northeast 514 592 37,000  Level FlightAware
01:48PM 37.9450 -111.7850 59° Northeast 514 592 37,000  Level FlightAware
01:49PM 37.9830 -111.7060 59° Northeast 514 592 37,000  Level FlightAware
01:49PM 38.0210 -111.6240 60° Northeast 514 592 37,000  Level FlightAware
01:51PM 38.0890 -111.0700 81° East 526 605 37,000  Level FlightAware
01:51PM 38.1240 -110.9540 69° East 525 604 37,000  Level FlightAware
01:52PM 38.1540 -110.8520 69° East 525 604 37,000  Level FlightAware
01:53PM 38.1860 -110.7450 69° East 526 605 37,000  Level FlightAware
01:53PM 38.2130 -110.6530 69° East 526 605 37,000  Level FlightAware
01:54PM 38.2460 -110.5430 69° East 527 606 37,000  Level FlightAware
01:54PM 38.2760 -110.4390 70° East 527 606 37,000  Level FlightAware
01:55PM 38.3140 -110.3380 64° Northeast 523 602 37,000  Level FlightAware
01:56PM 38.3670 -110.2150 61° Northeast 523 602 37,000  Level FlightAware
01:56PM 38.4080 -110.1200 61° Northeast 522 601 37,000  Level FlightAware
01:57PM 38.4480 -110.0260 61° Northeast 523 602 37,000  Level FlightAware
01:58PM 38.4860 -109.9370 61° Northeast 521 600 37,000  Level FlightAware
01:58PM 38.5260 -109.8430 61° Northeast 521 600 37,000  Level FlightAware
01:59PM 38.5680 -109.7430 62° Northeast 522 601 37,000  Level FlightAware
01:59PM 38.6070 -109.6510 61° Northeast 523 602 37,000  Level FlightAware
02:00PM 38.6500 -109.5480 62° Northeast 523 602 37,000  Level FlightAware
02:00PM 38.6850 -109.4650 62° Northeast 523 602 37,000  Level FlightAware
02:01PM 38.7360 -109.3430 62° Northeast 526 605 37,000  Level FlightAware
02:02PM 38.7720 -109.2560 62° Northeast 526 605 37,000  Level FlightAware
02:02PM 38.8140 -109.1560 62° Northeast 527 606 37,000  Level FlightAware
02:03PM 38.8510 -109.0680 62° Northeast 526 605 37,000  Level FlightAware
02:03PM 38.8960 -108.9590 62° Northeast 527 606 37,000  Level FlightAware
02:04PM 38.9380 -108.8580 62° Northeast 526 605 37,000  Level FlightAware
02:05PM 38.9800 -108.7550 62° Northeast 527 606 37,000  Level FlightAware
02:05PM 39.0130 -108.6750 62° Northeast 525 604 37,000  Level FlightAware
02:06PM 39.0490 -108.5860 62° Northeast 523 602 37,000  Level FlightAware
02:06PM 39.0910 -108.4820 62° Northeast 523 602 37,000  Level FlightAware
02:07PM 39.1370 -108.3690 62° Northeast 522 601 37,000  Level FlightAware
02:08PM 39.1780 -108.2680 62° Northeast 521 600 37,000  Level FlightAware
02:08PM 39.2190 -108.1660 63° Northeast 521 600 37,000  Level FlightAware
02:09PM 39.2510 -108.0870 62° Northeast 520 598 37,000  Level FlightAware
02:09PM 39.3050 -107.9850 56° Northeast 515 593 37,000  Level FlightAware
02:10PM 39.3490 -107.9090 53° Northeast 515 593 37,000  Level FlightAware
02:11PM 39.4030 -107.8140 54° Northeast 515 593 37,000  Level FlightAware
02:11PM 39.4520 -107.7270 54° Northeast 514 592 37,000  Level FlightAware
02:12PM 39.4970 -107.6480 54° Northeast 513 590 37,000  Level FlightAware
02:12PM 39.5600 -107.5380 53° Northeast 515 593 37,000  Level FlightAware
02:13PM 39.6095 -107.4500 54° Northeast 517 595 37,000  Level FlightAware ADS-B
02:14PM 39.6524 -107.3750 53° Northeast 517 595 37,000  Level FlightAware ADS-B
02:14PM 39.6962 -107.2980 54° Northeast 514 592 37,000  Level FlightAware ADS-B
02:14PM 39.7308 -107.2370 54° Northeast 513 590 37,000  Level FlightAware ADS-B
02:15PM 39.7384 -107.2220 57° Northeast 513 590 37,000  Level FlightAware ADS-B
02:15PM 39.7608 -107.1710 60° Northeast 517 595 37,000  Level FlightAware ADS-B
02:15PM 39.7926 -107.0840 65° Northeast 517 595 37,000  Level FlightAware ADS-B
02:16PM 39.8234 -107.0000 64° Northeast 516 594 37,000  Level FlightAware ADS-B
02:16PM 39.8542 -106.9160 64° Northeast 515 593 37,000  Level FlightAware ADS-B
02:17PM 39.8921 -106.8120 65° Northeast 513 590 37,000  Level FlightAware ADS-B
02:18PM 39.9262 -106.7180 65° Northeast 514 592 37,000  Level FlightAware ADS-B
02:18PM 39.9611 -106.6220 65° Northeast 514 592 37,000  Level FlightAware ADS-B
02:19PM 40.0000 -106.5150 65° Northeast 513 590 37,000  Level FlightAware ADS-B
02:19PM 40.0391 -106.4070 65° Northeast 512 589 37,000  Level FlightAware ADS-B
02:20PM 40.0741 -106.3100 65° Northeast 510 587 37,000  Level FlightAware ADS-B
02:21PM 40.1152 -106.1950 65° Northeast 511 588 37,000 60 Level FlightAware ADS-B
02:21PM 40.1472 -106.1060 65° Northeast 514 592 37,100 540 Climbing FlightAware ADS-B
02:22PM 40.1805 -106.0130 65° Northeast 514 592 37,600 780 Climbing FlightAware ADS-B
02:22PM 40.2136 -105.9190 65° Northeast 514 592 38,000 600 Climbing FlightAware ADS-B
02:23PM 40.2442 -105.8330 65° Northeast 514 592 38,300 540 Climbing FlightAware ADS-B
02:23PM 40.2765 -105.7420 65° Northeast 513 590 38,600 540 Climbing FlightAware ADS-B
02:24PM 40.3080 -105.6530 65° Northeast 513 590 38,900 360 Climbing FlightAware ADS-B
02:24PM 40.3408 -105.5590 65° Northeast 514 592 39,000 60 Climbing FlightAware ADS-B
02:25PM 40.3714 -105.4720 65° Northeast 516 594 39,000  Level FlightAware ADS-B
02:25PM 40.4020 -105.3840 65° Northeast 515 593 39,000  Level FlightAware ADS-B
02:26PM 40.4317 -105.2980 66° East 513 590 39,000  Level FlightAware ADS-B
02:26PM 40.4611 -105.2130 66° East 509 586 39,000  Level FlightAware ADS-B
02:27PM 40.4903 -105.1290 65° Northeast 507 583 39,000  Level FlightAware ADS-B
02:27PM 40.5194 -105.0450 65° Northeast 507 583 39,000  Level FlightAware ADS-B
02:28PM 40.5486 -104.9610 65° Northeast 507 583 39,000  Level FlightAware ADS-B
02:29PM 40.5780 -104.8750 66° East 508 585 39,000  Level FlightAware ADS-B
02:29PM 40.6069 -104.7900 66° East 508 585 39,000  Level FlightAware ADS-B
02:30PM 40.6358 -104.7050 66° East 508 585 39,000  Level FlightAware ADS-B
02:30PM 40.6650 -104.6190 66° East 509 586 39,000  Level FlightAware ADS-B
02:31PM 40.6938 -104.5330 66° East 508 585 39,000  Level FlightAware ADS-B
02:31PM 40.7225 -104.4480 66° East 506 582 39,000  Level FlightAware ADS-B
02:32PM 40.7517 -104.3610 66° East 506 582 39,000  Level FlightAware ADS-B
02:32PM 40.7804 -104.2770 66° East 508 585 39,000  Level FlightAware ADS-B
02:33PM 40.8089 -104.1910 66° East 509 586 39,000  Level FlightAware ADS-B
02:33PM 40.8378 -104.1050 66° East 508 585 39,000  Level FlightAware ADS-B
02:34PM 40.8663 -104.0190 66° East 507 583 39,000  Level FlightAware ADS-B
02:34PM 40.8951 -103.9320 66° East 507 583 39,000  Level FlightAware ADS-B
02:35PM 40.9236 -103.8460 66° East 507 583 39,000  Level FlightAware ADS-B
02:35PM 40.9517 -103.7600 67° East 507 583 39,000  Level FlightAware ADS-B
02:36PM 40.9801 -103.6730 67° East 505 581 39,000  Level FlightAware ADS-B
02:36PM 41.0078 -103.5890 66° East 505 581 39,000  Level FlightAware ADS-B
02:37PM 41.0419 -103.4840 67° East 504 580 39,000  Level FlightAware ADS-B
02:37PM 41.0721 -103.3910 67° East 504 580 39,000  Level FlightAware ADS-B
02:38PM 41.0997 -103.3060 67° East 503 579 39,000  Level FlightAware ADS-B
02:38PM 41.1289 -103.2160 67° East 502 578 39,000  Level FlightAware ADS-B
02:39PM 41.1567 -103.1290 67° East 501 577 39,000  Level FlightAware ADS-B
02:39PM 41.1843 -103.0430 67° East 501 577 39,000  Level FlightAware ADS-B
02:40PM 41.2126 -102.9550 67° East 501 577 39,000  Level FlightAware ADS-B
02:40PM 41.2399 -102.8690 67° East 500 575 39,000  Level FlightAware ADS-B
02:41PM 41.2673 -102.7830 67° East 501 577 39,000  Level FlightAware ADS-B
02:41PM 41.2947 -102.6970 67° East 501 577 39,000  Level FlightAware ADS-B
02:42PM 41.3278 -102.5920 67° East 502 578 39,000  Level FlightAware ADS-B
02:42PM 41.3552 -102.5040 67° East 502 578 39,000  Level FlightAware ADS-B
02:43PM 41.3821 -102.4180 67° East 502 578 39,000  Level FlightAware ADS-B
02:43PM 41.4093 -102.3320 67° East 501 577 39,000  Level FlightAware ADS-B
02:44PM 41.4391 -102.2370 67° East 501 577 39,000  Level FlightAware ADS-B
02:45PM 41.4659 -102.1500 68° East 499 574 39,000  Level FlightAware ADS-B
02:45PM 41.4921 -102.0650 68° East 497 572 39,000  Level FlightAware ADS-B
02:46PM 41.5235 -101.9630 68° East 491 565 39,000  Level FlightAware ADS-B
02:46PM 41.5519 -101.8700 68° East 489 563 39,000  Level FlightAware ADS-B
02:47PM 41.5778 -101.7860 68° East 487 560 39,000  Level FlightAware ADS-B
02:47PM 41.6039 -101.7010 68° East 486 559 39,000  Level FlightAware ADS-B
02:48PM 41.6293 -101.6170 68° East 485 558 39,000  Level FlightAware ADS-B
02:48PM 41.6557 -101.5300 68° East 484 557 39,000  Level FlightAware ADS-B
02:49PM 41.6822 -101.4430 68° East 484 557 39,000  Level FlightAware ADS-B
02:49PM 41.7080 -101.3570 68° East 485 558 39,000  Level FlightAware ADS-B
02:50PM 41.7338 -101.2710 68° East 486 559 39,000  Level FlightAware ADS-B
02:50PM 41.7605 -101.1810 68° East 486 559 39,000  Level FlightAware ADS-B
02:51PM 41.7989 -101.0503 68° East 485 558 39,000  Level Denver Center
02:52PM 41.8458 -100.8603 72° East 484 557 39,000  Level Denver Center
02:53PM 41.8681 -100.6903 80° East 481 554 39,000  Level Denver Center
02:54PM 41.8928 -100.5208 79° East 484 557 39,000  Level Denver Center
02:55PM 41.9211 -100.3244 79° East 480 552 39,000  Level Denver Center
02:56PM 41.9453 -100.1561 79° East 480 552 39,000  Level Denver Center
02:57PM 41.9722 -99.9592 80° East 480 552 39,000  Level Denver Center
03:04PM 42.1200 -98.8560 80° East 477 549 39,000  Level FlightAware
03:04PM 42.1310 -98.7680 80° East 477 549 39,000  Level FlightAware
03:05PM 42.1440 -98.6760 79° East 477 549 39,000  Level FlightAware
03:05PM 42.1550 -98.5910 80° East 477 549 39,000  Level FlightAware
03:06PM 42.1670 -98.4990 80° East 477 549 39,000  Level FlightAware
03:07PM 42.1780 -98.4090 81° East 477 549 39,000  Level FlightAware
03:07PM 42.1900 -98.3200 80° East 477 549 39,000  Level FlightAware
03:08PM 42.2020 -98.2300 80° East 477 549 39,000  Level FlightAware
03:08PM 42.2130 -98.1400 81° East 477 549 39,000  Level FlightAware
03:09PM 42.2250 -98.0500 80° East 477 549 39,000  Level FlightAware
03:10PM 42.2370 -97.9610 80° East 477 549 39,000  Level FlightAware
03:10PM 42.2600 -97.7170 83° East 39,000  Level FlightAware
03:11PM 42.2780 -97.5660 81° East 474 545 39,000  Level FlightAware
03:12PM 42.2930 -97.4360 81° East 475 547 39,000  Level FlightAware
03:12PM 42.3040 -97.3440 81° East 474 545 39,000  Level FlightAware
03:13PM 42.3160 -97.2310 82° East 474 545 39,000  Level FlightAware
03:14PM 42.3290 -97.1230 81° East 474 545 39,000  Level FlightAware
03:14PM 42.3400 -97.0230 82° East 473 544 39,000  Level FlightAware
03:15PM 42.3530 -96.9090 81° East 472 543 39,000  Level FlightAware
03:15PM 42.3640 -96.8060 82° East 472 543 39,000  Level FlightAware
03:16PM 42.3750 -96.7020 82° East 469 540 39,000  Level FlightAware
03:17PM 42.3870 -96.5960 81° East 468 539 39,000  Level FlightAware
03:17PM 42.3970 -96.5040 82° East 467 537 39,000  Level FlightAware
03:18PM 42.4090 -96.3930 82° East 466 536 39,000  Level FlightAware
03:18PM 42.4210 -96.2750 82° East 466 536 39,000  Level FlightAware
03:19PM 42.4320 -96.1700 82° East 466 536 39,000  Level FlightAware
03:20PM 42.4460 -96.0370 82° East 467 537 39,000  Level FlightAware
03:20PM 42.4550 -95.9440 82° East 467 537 39,000  Level FlightAware
03:21PM 42.4660 -95.8350 82° East 468 539 39,000  Level FlightAware
03:22PM 42.4770 -95.7230 82° East 468 539 39,000  Level FlightAware
03:22PM 42.4870 -95.6300 82° East 467 537 39,000  Level FlightAware
03:23PM 42.4960 -95.5370 82° East 466 536 39,000  Level FlightAware
03:23PM 42.5050 -95.4410 83° East 466 536 39,000  Level FlightAware
03:24PM 42.5170 -95.3240 82° East 464 534 39,000  Level FlightAware
03:24PM 42.5250 -95.2390 83° East 463 533 39,000  Level FlightAware
03:25PM 42.5360 -95.1220 83° East 462 532 39,000  Level FlightAware
03:26PM 42.5450 -95.0260 83° East 461 531 39,000  Level FlightAware
03:26PM 42.5540 -94.9270 83° East 460 529 39,000  Level FlightAware
03:27PM 42.5630 -94.8350 82° East 459 528 39,000  Level FlightAware
03:27PM 42.5720 -94.7310 83° East 459 528 39,000  Level FlightAware
03:28PM 42.5810 -94.6370 83° East 458 527 39,000  Level FlightAware
03:29PM 42.5900 -94.5360 83° East 457 526 39,000  Level FlightAware
03:29PM 42.5990 -94.4290 83° East 457 526 39,000  Level FlightAware
03:30PM 42.6080 -94.3260 83° East 457 526 39,000  Level FlightAware
03:30PM 42.6080 -94.2000 90° East 459 528 39,000  Level FlightAware
03:31PM 42.6050 -94.1070 92° East 458 527 39,000  Level FlightAware
03:32PM 42.6020 -93.9990 92° East 459 528 39,000  Level FlightAware
03:32PM 42.5990 -93.9070 93° East 461 531 39,000  Level FlightAware
03:33PM 42.5960 -93.8010 92° East 462 532 39,000  Level FlightAware
03:33PM 42.5920 -93.7000 93° East 464 534 39,000  Level FlightAware
03:34PM 42.5890 -93.6000 92° East 465 535 39,000  Level FlightAware
03:35PM 42.5850 -93.5010 93° East 465 535 39,000  Level FlightAware
03:35PM 42.5820 -93.4070 92° East 466 536 39,000  Level FlightAware
03:36PM 42.5780 -93.2970 93° East 466 536 39,000  Level FlightAware
03:36PM 42.5740 -93.1910 93° East 465 535 39,000  Level FlightAware
03:37PM 42.5700 -93.0940 93° East 464 534 39,000  Level FlightAware
03:37PM 42.5660 -92.9930 93° East 463 533 39,000 -300 Level FlightAware
03:38PM 42.5610 -92.8850 94° East 464 534 38,700 -840 Descending FlightAware
03:39PM 42.5570 -92.7910 93° East 472 543 38,100 -1,020 Descending FlightAware
03:39PM 42.5530 -92.6880 93° East 480 552 37,600 -900 Descending FlightAware
03:40PM 42.5480 -92.5680 93° East 484 557 37,000 -1,020 Descending FlightAware
03:40PM 42.5430 -92.4650 94° East 484 557 36,400 -1,020 Descending FlightAware
03:41PM 42.5380 -92.3680 94° East 486 559 35,900 -960 Descending FlightAware
03:42PM 42.5330 -92.2520 93° East 488 562 35,300 -960 Descending FlightAware
03:42PM 42.5280 -92.1490 94° East 491 565 34,800 -1,020 Descending FlightAware
03:43PM 42.5240 -92.0460 93° East 489 563 34,200 -960 Descending FlightAware
03:43PM 42.5250 -91.9460 89° East 492 566 33,700 -960 Descending FlightAware
03:44PM 42.5260 -91.8300 89° East 499 574 33,100 -1,020 Descending FlightAware
03:44PM 42.5260 -91.7160 90° East 501 577 32,500 -960 Descending FlightAware
03:45PM 42.5260 -91.6070 90° East 500 575 32,000 -960 Descending FlightAware
03:46PM 42.5270 -91.4930 89° East 500 575 31,400 -900 Descending FlightAware
03:46PM 42.5270 -91.3980 90° East 496 571 31,000 -840 Descending FlightAware
03:47PM 42.5270 -91.2940 90° East 482 555 30,500 -1,020 Descending FlightAware
03:47PM 42.5270 -91.1920 90° East 471 542 29,900 -1,140 Descending FlightAware
03:48PM 42.5270 -91.0830 90° East 458 527 29,200 -1,080 Descending FlightAware
03:49PM 42.5270 -90.9790 90° East 445 512 28,600 -840 Descending FlightAware
03:49PM 42.5270 -90.8920 90° East 419 482 28,300 -1,080 Descending FlightAware
03:50PM 42.5260 -90.8000 91° East 405 466 27,400 -1,500 Descending FlightAware
03:50PM 42.5260 -90.7100 90° East 396 456 26,500 -1,620 Descending FlightAware
03:51PM 42.5250 -90.6280 91° East 389 448 25,600 -1,740 Descending FlightAware
03:51PM 42.5250 -90.5390 90° East 385 443 24,500 -1,440 Descending FlightAware
03:52PM 42.5240 -90.4630 91° East 377 434 24,000 -480 Descending FlightAware
03:53PM 42.5230 -90.3760 91° East 375 432 24,000  Level FlightAware
03:53PM 42.5230 -90.2930 90° East 373 429 24,000  Level FlightAware
03:54PM 42.5220 -90.2070 91° East 383 441 24,000  Level FlightAware
03:54PM 42.5220 -90.1260 90° East 416 479 24,000  Level FlightAware
03:55PM 42.5150 -90.0240 95° East 445 512 24,000 -180 Level FlightAware
03:56PM 42.5060 -89.9260 97° East 447 514 23,800 -720 Descending FlightAware
03:56PM 42.4980 -89.8390 97° East 441 507 23,200 -1,500 Descending FlightAware
03:57PM 42.4900 -89.7430 96° East 436 502 22,100 -1,920 Descending FlightAware
03:57PM 42.4820 -89.6450 96° East 428 493 20,900 -1,920 Descending FlightAware
03:58PM 42.4730 -89.5510 97° East 422 486 19,800 -1,800 Descending FlightAware
03:58PM 42.4660 -89.4700 97° East 415 478 18,900 -1,800 Descending FlightAware
03:59PM 42.4580 -89.3760 97° East 404 465 17,800 -1,860 Descending FlightAware
04:00PM 42.4500 -89.2860 97° East 395 455 16,700 -1,860 Descending FlightAware
04:00PM 42.4420 -89.1980 97° East 387 445 15,600 -1,860 Descending FlightAware
04:01PM 42.4350 -89.1230 97° East 385 443 14,600 -1,800 Descending FlightAware
04:01PM 42.4270 -89.0380 97° East 378 435 13,600 -1,620 Descending FlightAware
04:02PM 42.4200 -88.9660 97° East 373 429 12,800 -1,620 Descending FlightAware
04:03PM 42.4110 -88.8730 97° East 366 421 11,700 -1,680 Descending FlightAware
04:03PM 42.4040 -88.7960 97° East 354 407 10,800 -1,380 Descending FlightAware
04:04PM 42.3960 -88.7210 98° East 334 384 10,100 -1,020 Descending FlightAware
04:04PM 42.3920 -88.6790 97° East 319 367 9,900 -600 Descending FlightAware
04:04PM 42.3890 -88.6390 96° East 307 353 9,700 -720 Descending FlightAware
04:05PM 42.3860 -88.6160 100° East 301 346 9,500 -1,020 Descending FlightAware
04:05PM 42.3830 -88.5850 97° East 298 343 9,200 -1,020 Descending FlightAware
04:05PM 42.3790 -88.5380 97° East 294 338 8,800 -660 Descending FlightAware
04:06PM 42.3740 -88.5010 100° East 292 336 8,700 -180 Descending FlightAware
04:06PM 42.3640 -88.4630 110° East 275 316 8,700 -360 Level FlightAware
04:06PM 42.3570 -88.4370 110° East 259 298 8,500 -840 Descending FlightAware
04:07PM 42.3470 -88.4050 113° Southeast 249 287 8,200 -1,200 Descending FlightAware
04:07PM 42.3360 -88.3780 119° Southeast 248 285 7,700 -1,380 Descending FlightAware
04:07PM 42.3250 -88.3510 119° Southeast 245 282 7,300 -1,020 Descending FlightAware
04:07PM 42.3200 -88.3390 119° Southeast 243 280 7,200 -900 Descending FlightAware
04:08PM 42.3070 -88.3050 117° Southeast 240 276 6,800 -660 Descending FlightAware
04:08PM 42.2980 -88.2870 124° Southeast 242 278 6,800  Level FlightAware
04:08PM 42.2830 -88.2660 134° Southeast 244 281 6,800  Level FlightAware
04:09PM 42.2660 -88.2440 136° Southeast 240 276 6,800 -180 Level FlightAware
04:09PM 42.2480 -88.2240 141° Southeast 230 265 6,700 -180 Descending FlightAware
04:09PM 42.2330 -88.2070 140° Southeast 217 250 6,700 -540 Level FlightAware
04:10PM 42.2200 -88.1940 143° Southeast 214 246 6,400 -1,440 Descending FlightAware
04:10PM 42.2030 -88.1740 139° Southeast 218 251 5,800 -1,440 Descending FlightAware
04:10PM 42.1910 -88.1600 139° Southeast 210 242 5,500 -1,020 Descending FlightAware
04:11PM 42.1760 -88.1440 142° Southeast 206 237 5,200 -1,080 Descending FlightAware
04:11PM 42.1620 -88.1270 138° Southeast 205 236 4,800 -1,200 Descending FlightAware
04:11PM 42.1550 -88.1190 140° Southeast 204 235 4,600 -1,140 Descending FlightAware
04:12PM 42.1390 -88.1010 140° Southeast 201 231 4,200 -840 Descending FlightAware
04:12PM 42.1280 -88.0880 139° Southeast 193 222 4,100 -1,020 Descending FlightAware
04:12PM 42.1140 -88.0730 142° Southeast 197 227 3,600 -1,260 Descending FlightAware
04:13PM 42.0980 -88.0540 139° Southeast 191 220 3,200 -1,080 Descending FlightAware
04:13PM 42.0870 -88.0420 141° Southeast 185 213 2,900 -1,080 Descending FlightAware
04:13PM 42.0710 -88.0240 140° Southeast 185 213 2,500 -1,140 Descending FlightAware
04:14PM 42.0580 -88.0100 141° Southeast 175 201 2,100 -960 Descending FlightAware
04:14PM 42.0440 -87.9940 140° Southeast 165 190 1,800 -840 Descending FlightAware
04:14PM 42.0320 -87.9810 141° Southeast 160 184 1,500 -900 Descending FlightAware
04:15PM 42.0210 -87.9670 137° Southeast 161 185 1,200 -780 Descending FlightAware
04:15PM 42.0150 -87.9610 143° Southeast 156 180 1,100 -900 Descending FlightAware
04:15PM 41.9980 -87.9410 139° Southeast 159 183 600 -1,080 Descending FlightAware
04:16PM 41.9800 -87.9210 140° Southeast 120 138 -1,080 Descending FlightAware
04:16PM 41.9770 -87.9170 135° Southeast 86 99  Level FlightAware
04:17PM 41.9690 -87.9090 143° Southeast 86 99  Level FlightAware